createdAt,value
2019-06-27T00:03:43.589Z,74.06
2019-06-27T00:09:04.374Z,74.51
2019-06-27T00:14:23.461Z,75.21
2019-06-27T00:19:42.588Z,74.85
2019-06-27T00:25:01.808Z,75.27
2019-06-27T00:30:21.070Z,75.56
2019-06-27T00:35:40.234Z,75.96
2019-06-27T00:40:59.397Z,76.50
2019-06-27T00:46:18.549Z,76.82
2019-06-27T00:51:37.734Z,77.32
2019-06-27T00:57:12.569Z,77.67
2019-06-27T01:02:17.787Z,77.98
2019-06-27T01:07:36.912Z,77.80
2019-06-27T01:12:56.066Z,78.07
2019-06-27T01:18:15.598Z,78.30
2019-06-27T01:23:34.813Z,78.01
2019-06-27T01:28:53.973Z,78.01
2019-06-27T01:34:13.144Z,78.30
2019-06-27T01:39:32.315Z,78.76
2019-06-27T01:44:53.130Z,78.87
2019-06-27T01:50:12.348Z,78.87
2019-06-27T01:55:31.534Z,79.40
2019-06-27T02:00:50.767Z,79.26
2019-06-27T02:06:10.009Z,79.79
2019-06-27T02:11:29.162Z,79.91
2019-06-27T02:16:48.345Z,80.02
2019-06-27T02:22:07.508Z,80.31
2019-06-27T02:27:26.604Z,80.43
2019-06-27T02:32:45.799Z,80.12
2019-06-27T02:38:05.096Z,79.92
2019-06-27T02:43:24.313Z,80.04
2019-06-27T02:48:43.497Z,79.81
2019-06-27T02:54:02.662Z,79.96
2019-06-27T02:59:21.858Z,79.84
2019-06-27T03:04:40.998Z,80.06
2019-06-27T03:10:00.173Z,80.06
2019-06-27T03:15:19.403Z,80.09
2019-06-27T03:20:38.934Z,79.87
2019-06-27T03:25:58.125Z,80.17
2019-06-27T03:31:17.384Z,80.28
2019-06-27T03:36:36.845Z,80.31
2019-06-27T03:41:56.021Z,80.57
2019-06-27T03:47:15.158Z,80.64
2019-06-27T03:52:34.705Z,80.81
2019-06-27T03:57:53.793Z,80.64
2019-06-27T04:03:12.953Z,80.39
2019-06-27T04:08:32.132Z,80.37
2019-06-27T04:13:51.332Z,80.04
2019-06-27T04:19:10.564Z,80.09
2019-06-27T04:24:29.797Z,80.13
2019-06-27T04:29:48.961Z,80.16
2019-06-27T04:35:08.181Z,79.56
2019-06-27T04:40:27.349Z,80.36
2019-06-27T04:45:46.499Z,79.21
2019-06-27T04:51:05.655Z,78.65
2019-06-27T04:56:24.984Z,78.39
2019-06-27T05:01:44.132Z,77.43
2019-06-27T05:07:03.234Z,76.91
2019-06-27T05:12:22.379Z,76.18
2019-06-27T05:17:41.463Z,76.25
2019-06-27T05:23:00.625Z,75.26
2019-06-27T05:28:19.800Z,75.19
2019-06-27T05:33:38.946Z,74.19
2019-06-27T05:38:58.102Z,70.18
2019-06-27T05:44:17.232Z,71.48
2019-06-27T05:49:36.390Z,71.05
2019-06-27T05:54:55.539Z,71.49
2019-06-27T06:00:27.760Z,67.41
2019-06-27T06:05:36.155Z,63.27
2019-06-27T06:10:55.368Z,62.15
2019-06-27T06:16:14.438Z,61.35
2019-06-27T06:21:33.605Z,61.10
2019-06-27T06:26:52.756Z,60.79
2019-06-27T06:32:11.871Z,60.74
2019-06-27T06:37:31.032Z,62.06
2019-06-27T06:42:50.227Z,62.63
2019-06-27T06:48:09.451Z,60.61
2019-06-27T06:53:28.561Z,58.82
2019-06-27T06:58:47.926Z,57.17
2019-06-27T07:04:07.076Z,58.44
2019-06-27T07:09:26.395Z,57.48
2019-06-27T07:14:45.615Z,56.84
2019-06-27T07:20:05.969Z,56.84
2019-06-27T07:25:25.125Z,58.51
2019-06-27T07:30:44.368Z,55.46
2019-06-27T07:36:03.491Z,57.11
2019-06-27T07:41:22.686Z,55.92
2019-06-27T07:46:41.881Z,55.41
2019-06-27T07:52:01.043Z,54.70
2019-06-27T07:57:20.176Z,55.20
2019-06-27T08:02:39.319Z,51.50
2019-06-27T08:07:58.523Z,52.62
2019-06-27T08:13:17.659Z,51.02
2019-06-27T08:18:36.810Z,50.61
2019-06-27T08:23:55.967Z,50.33
2019-06-27T08:29:15.120Z,50.34
2019-06-27T08:34:34.504Z,50.10
2019-06-27T08:39:53.626Z,49.94
2019-06-27T08:45:13.797Z,49.76
2019-06-27T08:50:32.913Z,49.89
2019-06-27T08:55:52.092Z,48.73
2019-06-27T09:01:11.292Z,50.56
2019-06-27T09:06:30.830Z,47.97
2019-06-27T09:11:50.001Z,47.25
2019-06-27T09:17:09.175Z,45.26
2019-06-27T09:22:28.367Z,43.23
2019-06-27T09:27:47.832Z,44.48
2019-06-27T09:33:07.003Z,43.71
2019-06-27T09:38:26.170Z,43.79
2019-06-27T09:43:45.382Z,44.50
2019-06-27T09:49:04.947Z,43.38
2019-06-27T09:54:24.097Z,42.31
2019-06-27T09:59:43.246Z,43.15
2019-06-27T10:05:02.448Z,43.66
2019-06-27T10:10:21.589Z,42.65
2019-06-27T10:15:40.751Z,40.60
2019-06-27T10:20:59.938Z,40.93
2019-06-27T10:26:19.064Z,40.99
2019-06-27T10:31:38.177Z,39.77
2019-06-27T10:36:57.353Z,39.87
2019-06-27T10:42:17.166Z,38.69
2019-06-27T10:47:36.326Z,40.72
2019-06-27T10:52:55.473Z,39.63
2019-06-27T10:58:14.552Z,38.23
2019-06-27T11:03:33.925Z,39.02
2019-06-27T11:08:53.088Z,38.02
2019-06-27T11:14:12.602Z,37.80
2019-06-27T11:19:31.795Z,35.16
2019-06-27T11:24:50.989Z,35.16
2019-06-27T11:30:10.284Z,33.78
2019-06-27T11:35:29.595Z,33.78
2019-06-27T11:40:48.755Z,32.86
2019-06-27T11:46:08.983Z,32.62
2019-06-27T11:51:28.547Z,33.00
2019-06-27T11:56:47.731Z,34.08
2019-06-27T12:02:07.072Z,33.21
2019-06-27T12:07:26.221Z,34.46
2019-06-27T12:12:45.372Z,35.15
2019-06-27T12:18:04.820Z,35.59
2019-06-27T12:23:24.555Z,37.12
2019-06-27T12:28:43.724Z,36.75
2019-06-27T12:34:07.333Z,35.17
2019-06-27T12:39:23.796Z,34.87
2019-06-27T12:44:42.941Z,36.38
2019-06-27T12:50:03.231Z,34.81
2019-06-27T12:55:22.717Z,35.92
2019-06-27T13:00:41.877Z,33.70
2019-06-27T13:06:01.377Z,33.67
2019-06-27T13:11:20.543Z,32.51
2019-06-27T13:16:39.830Z,32.54
2019-06-27T13:21:59.029Z,32.02
2019-06-27T13:27:18.571Z,32.01
2019-06-27T13:32:37.788Z,33.85
2019-06-27T13:37:57.940Z,33.90
2019-06-27T13:43:17.157Z,32.40
2019-06-27T13:48:36.314Z,30.97
2019-06-27T13:53:55.437Z,33.30
2019-06-27T13:59:14.903Z,34.29
2019-06-27T14:04:34.360Z,34.13
2019-06-27T14:09:57.110Z,33.08
2019-06-27T14:15:14.644Z,33.89
2019-06-27T14:20:33.816Z,34.68
2019-06-27T14:25:52.983Z,35.06
2019-06-27T14:31:12.138Z,36.05
2019-06-27T14:36:31.722Z,35.97
2019-06-27T14:41:50.836Z,35.44
2019-06-27T14:47:09.987Z,34.46
2019-06-27T14:52:29.149Z,35.15
2019-06-27T14:57:48.305Z,34.89
2019-06-27T15:03:07.447Z,34.15
2019-06-27T15:08:26.569Z,33.86
2019-06-27T15:13:45.730Z,34.13
2019-06-27T15:19:04.877Z,39.07
2019-06-27T15:24:24.034Z,34.45
2019-06-27T15:29:43.187Z,34.41
2019-06-27T15:35:02.406Z,35.56
2019-06-27T15:40:21.746Z,35.34
2019-06-27T15:45:40.847Z,36.51
2019-06-27T15:50:59.997Z,36.19
2019-06-27T15:56:19.234Z,35.23
2019-06-27T16:01:38.528Z,35.40
2019-06-27T16:06:57.666Z,35.88
2019-06-27T16:12:16.838Z,36.48
2019-06-27T16:17:36.005Z,36.12
2019-06-27T16:22:55.127Z,37.63
2019-06-27T16:28:14.391Z,37.50
2019-06-27T16:33:33.543Z,38.86
2019-06-27T16:38:52.674Z,38.70
2019-06-27T16:44:11.795Z,38.26
2019-06-27T16:49:31.272Z,37.91
2019-06-27T16:54:50.788Z,36.27
2019-06-27T17:00:10.144Z,36.99
2019-06-27T17:05:29.342Z,38.08
2019-06-27T17:10:48.505Z,38.66
2019-06-27T17:16:07.653Z,38.46
2019-06-27T17:21:26.807Z,37.97
2019-06-27T17:26:45.961Z,39.15
2019-06-27T17:32:06.520Z,38.82
2019-06-27T17:37:25.819Z,37.35
2019-06-27T17:42:44.997Z,37.28
2019-06-27T17:48:04.119Z,38.17
2019-06-27T17:53:23.261Z,38.38
2019-06-27T17:58:42.392Z,40.80
2019-06-27T18:04:01.597Z,40.24
2019-06-27T18:09:20.730Z,40.50
2019-06-27T18:14:39.958Z,39.34
2019-06-27T18:19:59.124Z,39.68
2019-06-27T18:25:18.310Z,40.12
2019-06-27T18:30:37.429Z,39.80
2019-06-27T18:35:56.562Z,40.63
2019-06-27T18:41:15.856Z,41.84
2019-06-27T18:46:35.068Z,43.19
2019-06-27T18:51:54.139Z,43.83
2019-06-27T18:57:13.350Z,44.34
2019-06-27T19:02:32.533Z,44.07
2019-06-27T19:07:51.778Z,44.79
2019-06-27T19:13:10.854Z,45.30
2019-06-27T19:18:43.207Z,45.54
2019-06-27T19:24:15.999Z,47.35
2019-06-27T19:29:35.149Z,49.58
2019-06-27T19:34:54.295Z,50.77
2019-06-27T19:40:13.945Z,52.21
2019-06-27T19:45:33.076Z,52.64
2019-06-27T19:50:52.231Z,53.43
2019-06-27T19:56:11.390Z,54.75
2019-06-27T20:01:30.545Z,56.59
2019-06-27T20:06:49.675Z,57.24
2019-06-27T20:12:08.821Z,58.21
2019-06-27T20:17:28.087Z,59.21
2019-06-27T20:22:48.926Z,59.69
2019-06-27T20:28:08.042Z,59.48
2019-06-27T20:33:34.005Z,59.78
2019-06-27T20:38:53.151Z,60.07
2019-06-27T20:44:12.625Z,60.05
2019-06-27T20:49:31.764Z,59.96
2019-06-27T20:54:50.974Z,59.34
2019-06-27T21:00:10.466Z,59.17
2019-06-27T21:05:29.560Z,59.00
2019-06-27T21:10:48.695Z,60.16
2019-06-27T21:16:07.828Z,60.47
2019-06-27T21:21:26.976Z,61.10
2019-06-27T21:26:46.109Z,62.06
2019-06-27T21:32:05.272Z,61.74
2019-06-27T21:37:24.408Z,62.11
2019-06-27T21:42:43.560Z,62.45
2019-06-27T21:48:02.748Z,63.14
2019-06-27T21:53:21.883Z,63.19
2019-06-27T21:58:41.042Z,63.91
2019-06-27T22:04:00.186Z,64.35
2019-06-27T22:09:24.859Z,65.09
2019-06-27T22:14:40.215Z,65.82
2019-06-27T22:20:14.064Z,67.35
2019-06-27T22:25:20.218Z,67.96
2019-06-27T22:30:39.366Z,68.50
2019-06-27T22:35:58.502Z,68.58
2019-06-27T22:41:35.589Z,68.18
2019-06-27T22:47:12.866Z,68.45
2019-06-27T22:52:36.765Z,69.17
2019-06-27T22:57:55.907Z,69.71
2019-06-27T23:03:15.054Z,70.25
2019-06-27T23:08:34.188Z,70.02
2019-06-27T23:13:53.334Z,70.25
2019-06-27T23:19:12.474Z,70.11
2019-06-27T23:24:31.936Z,70.32
2019-06-27T23:29:51.017Z,70.68
2019-06-27T23:35:10.262Z,71.22
2019-06-27T23:40:29.335Z,71.59
2019-06-27T23:45:48.552Z,72.10
2019-06-27T23:51:07.639Z,72.54
2019-06-27T23:56:26.722Z,72.58
